sensor_id;sensor_type;location;lat;lon;timestamp;temperature;humidity
20398;DHT22;10358;49.590;11.030;2023-01-26T00:00:51;0.30;99.90
20398;DHT22;10358;49.590;11.030;2023-01-26T00:03:17;0.20;99.90
20398;DHT22;10358;49.590;11.030;2023-01-26T00:05:44;0.20;99.90
20398;DHT22;10358;49.590;11.030;2023-01-26T00:08:10;0.30;99.90
20398;DHT22;10358;49.590;11.030;2023-01-26T00:10:40;0.30;99.90
20398;DHT22;10358;49.590;11.030;2023-01-26T00:13:07;0.30;99.90
20398;DHT22;10358;49.590;11.030;2023-01-26T00:15:35;0.30;99.90
20398;DHT22;10358;49.590;11.030;2023-01-26T00:18:01;0.30;99.90
20398;DHT22;10358;49.590;11.030;2023-01-26T00:20:27;0.30;99.90
20398;DHT22;10358;49.590;11.030;2023-01-26T00:22:53;0.30;99.90
20398;DHT22;10358;49.590;11.030;2023-01-26T00:25:18;0.40;99.90
20398;DHT22;10358;49.590;11.030;2023-01-26T00:27:44;0.40;99.90
20398;DHT22;10358;49.590;11.030;2023-01-26T00:30:10;0.50;99.90
20398;DHT22;10358;49.590;11.030;2023-01-26T00:32:36;0.60;99.90
20398;DHT22;10358;49.590;11.030;2023-01-26T00:35:03;0.60;99.90
20398;DHT22;10358;49.590;11.030;2023-01-26T00:37:28;0.60;99.90
20398;DHT22;10358;49.590;11.030;2023-01-26T00:39:54;0.70;99.90
20398;DHT22;10358;49.590;11.030;2023-01-26T00:42:20;0.70;99.90
20398;DHT22;10358;49.590;11.030;2023-01-26T00:44:46;0.60;99.90
20398;DHT22;10358;49.590;11.030;2023-01-26T00:47:12;0.70;99.90
20398;DHT22;10358;49.590;11.030;2023-01-26T00:49:38;0.70;99.90
20398;DHT22;10358;49.590;11.030;2023-01-26T00:52:04;0.80;99.90
20398;DHT22;10358;49.590;11.030;2023-01-26T00:54:30;0.70;99.90
20398;DHT22;10358;49.590;11.030;2023-01-26T00:56:56;0.70;99.90
20398;DHT22;10358;49.590;11.030;2023-01-26T00:59:21;0.80;99.90
20398;DHT22;10358;49.590;11.030;2023-01-26T01:01:47;0.80;99.90
20398;DHT22;10358;49.590;11.030;2023-01-26T01:04:14;0.90;99.90
20398;DHT22;10358;49.590;11.030;2023-01-26T01:06:40;0.90;99.90
20398;DHT22;10358;49.590;11.030;2023-01-26T01:09:06;0.90;99.90
20398;DHT22;10358;49.590;11.030;2023-01-26T01:11:32;0.90;99.90
20398;DHT22;10358;49.590;11.030;2023-01-26T01:13:57;0.90;99.90
20398;DHT22;10358;49.590;11.030;2023-01-26T01:16:23;0.90;99.90
20398;DHT22;10358;49.590;11.030;2023-01-26T01:18:52;0.90;99.90
20398;DHT22;10358;49.590;11.030;2023-01-26T01:21:20;1.00;99.90
20398;DHT22;10358;49.590;11.030;2023-01-26T01:23:45;0.90;99.90
20398;DHT22;10358;49.590;11.030;2023-01-26T01:26:12;0.70;99.90
20398;DHT22;10358;49.590;11.030;2023-01-26T01:28:39;0.70;99.90
20398;DHT22;10358;49.590;11.030;2023-01-26T01:31:11;0.70;99.90
20398;DHT22;10358;49.590;11.030;2023-01-26T01:33:37;0.60;99.90
20398;DHT22;10358;49.590;11.030;2023-01-26T01:36:05;0.50;99.90
20398;DHT22;10358;49.590;11.030;2023-01-26T01:38:31;0.40;99.90
20398;DHT22;10358;49.590;11.030;2023-01-26T01:40:57;0.30;99.90
20398;DHT22;10358;49.590;11.030;2023-01-26T01:43:23;0.20;99.90
20398;DHT22;10358;49.590;11.030;2023-01-26T01:45:50;0.10;99.90
20398;DHT22;10358;49.590;11.030;2023-01-26T01:48:18;0.10;99.90
20398;DHT22;10358;49.590;11.030;2023-01-26T01:50:45;0.10;99.90
20398;DHT22;10358;49.590;11.030;2023-01-26T01:53:17;0.10;99.90
20398;DHT22;10358;49.590;11.030;2023-01-26T01:55:50;0.00;99.90
20398;DHT22;10358;49.590;11.030;2023-01-26T01:58:17;0.00;99.90
20398;DHT22;10358;49.590;11.030;2023-01-26T02:00:42;-0.10;99.90
20398;DHT22;10358;49.590;11.030;2023-01-26T02:03:08;0.00;99.90
20398;DHT22;10358;49.590;11.030;2023-01-26T02:11:10;-0.10;99.90
20398;DHT22;10358;49.590;11.030;2023-01-26T02:13:38;-0.10;99.90
20398;DHT22;10358;49.590;11.030;2023-01-26T02:16:05;-0.20;99.90
20398;DHT22;10358;49.590;11.030;2023-01-26T02:18:31;-0.20;99.90
20398;DHT22;10358;49.590;11.030;2023-01-26T02:21:10;-0.10;99.90
20398;DHT22;10358;49.590;11.030;2023-01-26T02:23:49;-0.10;99.90
20398;DHT22;10358;49.590;11.030;2023-01-26T02:26:22;-0.10;99.90
20398;DHT22;10358;49.590;11.030;2023-01-26T02:28:49;-0.20;99.90
20398;DHT22;10358;49.590;11.030;2023-01-26T02:31:15;-0.20;99.90
20398;DHT22;10358;49.590;11.030;2023-01-26T02:33:42;-0.20;99.90
20398;DHT22;10358;49.590;11.030;2023-01-26T02:36:26;-0.30;99.90
20398;DHT22;10358;49.590;11.030;2023-01-26T02:41:39;-0.30;99.90
20398;DHT22;10358;49.590;11.030;2023-01-26T02:44:23;-0.20;99.90
20398;DHT22;10358;49.590;11.030;2023-01-26T02:46:49;-0.20;99.90
20398;DHT22;10358;49.590;11.030;2023-01-26T02:49:15;-0.20;99.90
20398;DHT22;10358;49.590;11.030;2023-01-26T02:51:59;-0.10;99.90
20398;DHT22;10358;49.590;11.030;2023-01-26T02:54:25;-0.10;99.90
20398;DHT22;10358;49.590;11.030;2023-01-26T02:57:09;-0.10;99.90
20398;DHT22;10358;49.590;11.030;2023-01-26T02:59:35;-0.10;99.90
20398;DHT22;10358;49.590;11.030;2023-01-26T03:02:00;-0.10;99.90
20398;DHT22;10358;49.590;11.030;2023-01-26T03:04:26;-0.10;99.90
20398;DHT22;10358;49.590;11.030;2023-01-26T03:06:51;-0.20;99.90
20398;DHT22;10358;49.590;11.030;2023-01-26T03:09:17;-0.20;99.90
20398;DHT22;10358;49.590;11.030;2023-01-26T03:11:43;-0.20;99.90
20398;DHT22;10358;49.590;11.030;2023-01-26T03:14:10;-0.20;99.90
20398;DHT22;10358;49.590;11.030;2023-01-26T03:16:36;-0.20;99.90
20398;DHT22;10358;49.590;11.030;2023-01-26T03:19:02;-0.20;99.90
20398;DHT22;10358;49.590;11.030;2023-01-26T03:21:27;-0.20;99.90
20398;DHT22;10358;49.590;11.030;2023-01-26T03:24:12;-0.30;99.90
20398;DHT22;10358;49.590;11.030;2023-01-26T03:26:57;-0.20;99.90
20398;DHT22;10358;49.590;11.030;2023-01-26T03:29:41;-0.20;99.90
20398;DHT22;10358;49.590;11.030;2023-01-26T03:32:07;-0.20;99.90
20398;DHT22;10358;49.590;11.030;2023-01-26T03:34:33;-0.20;99.90
20398;DHT22;10358;49.590;11.030;2023-01-26T03:36:58;-0.30;99.90
20398;DHT22;10358;49.590;11.030;2023-01-26T03:39:25;-0.30;99.90
20398;DHT22;10358;49.590;11.030;2023-01-26T03:42:09;-0.20;99.90
20398;DHT22;10358;49.590;11.030;2023-01-26T03:44:53;-0.20;99.90
20398;DHT22;10358;49.590;11.030;2023-01-26T03:47:37;-0.30;99.90
20398;DHT22;10358;49.590;11.030;2023-01-26T03:50:22;-0.30;99.90
20398;DHT22;10358;49.590;11.030;2023-01-26T03:53:22;-0.30;99.90
20398;DHT22;10358;49.590;11.030;2023-01-26T03:56:08;-0.30;99.90
20398;DHT22;10358;49.590;11.030;2023-01-26T03:58:49;-0.30;99.90
20398;DHT22;10358;49.590;11.030;2023-01-26T04:01:15;-0.30;99.90
20398;DHT22;10358;49.590;11.030;2023-01-26T04:03:51;-0.30;99.90
20398;DHT22;10358;49.590;11.030;2023-01-26T04:06:37;-0.20;99.90
20398;DHT22;10358;49.590;11.030;2023-01-26T04:09:21;-0.20;99.90
20398;DHT22;10358;49.590;11.030;2023-01-26T04:11:47;-0.20;99.90
20398;DHT22;10358;49.590;11.030;2023-01-26T04:14:14;-0.10;99.90
20398;DHT22;10358;49.590;11.030;2023-01-26T04:17:00;-0.10;99.90
20398;DHT22;10358;49.590;11.030;2023-01-26T04:19:44;-0.10;99.90
20398;DHT22;10358;49.590;11.030;2023-01-26T04:22:28;-0.10;99.90
20398;DHT22;10358;49.590;11.030;2023-01-26T04:24:54;-0.10;99.90
20398;DHT22;10358;49.590;11.030;2023-01-26T04:27:22;-0.10;99.90
20398;DHT22;10358;49.590;11.030;2023-01-26T04:29:47;0.00;99.90
20398;DHT22;10358;49.590;11.030;2023-01-26T04:32:13;0.00;99.90
20398;DHT22;10358;49.590;11.030;2023-01-26T04:34:39;0.00;99.90
20398;DHT22;10358;49.590;11.030;2023-01-26T04:37:04;0.00;99.90
20398;DHT22;10358;49.590;11.030;2023-01-26T04:39:30;0.00;99.90
20398;DHT22;10358;49.590;11.030;2023-01-26T04:41:55;0.00;99.90
20398;DHT22;10358;49.590;11.030;2023-01-26T04:44:21;0.00;99.90
20398;DHT22;10358;49.590;11.030;2023-01-26T04:46:46;0.00;99.90
20398;DHT22;10358;49.590;11.030;2023-01-26T04:49:13;0.00;99.90
20398;DHT22;10358;49.590;11.030;2023-01-26T04:51:40;0.00;99.90
20398;DHT22;10358;49.590;11.030;2023-01-26T04:54:05;0.00;99.90
20398;DHT22;10358;49.590;11.030;2023-01-26T04:56:34;0.10;99.90
20398;DHT22;10358;49.590;11.030;2023-01-26T04:59:02;0.00;99.90
20398;DHT22;10358;49.590;11.030;2023-01-26T05:01:28;0.00;99.90
20398;DHT22;10358;49.590;11.030;2023-01-26T05:03:54;-0.10;99.90
20398;DHT22;10358;49.590;11.030;2023-01-26T05:06:20;-0.20;99.90
20398;DHT22;10358;49.590;11.030;2023-01-26T05:08:46;-0.20;99.90
20398;DHT22;10358;49.590;11.030;2023-01-26T05:11:11;-0.30;99.90
20398;DHT22;10358;49.590;11.030;2023-01-26T05:13:37;-0.40;99.90
20398;DHT22;10358;49.590;11.030;2023-01-26T05:16:05;-0.40;99.90
20398;DHT22;10358;49.590;11.030;2023-01-26T05:18:32;-0.40;99.90
20398;DHT22;10358;49.590;11.030;2023-01-26T05:20:57;-0.50;99.90
20398;DHT22;10358;49.590;11.030;2023-01-26T05:23:23;-0.50;99.90
20398;DHT22;10358;49.590;11.030;2023-01-26T05:25:48;-0.50;99.90
20398;DHT22;10358;49.590;11.030;2023-01-26T05:28:14;-0.50;99.90
20398;DHT22;10358;49.590;11.030;2023-01-26T05:30:40;-0.50;99.90
20398;DHT22;10358;49.590;11.030;2023-01-26T05:33:07;-0.50;99.90
20398;DHT22;10358;49.590;11.030;2023-01-26T05:35:34;-0.50;99.90
20398;DHT22;10358;49.590;11.030;2023-01-26T05:38:00;-0.40;99.90
20398;DHT22;10358;49.590;11.030;2023-01-26T05:40:26;-0.30;99.90
20398;DHT22;10358;49.590;11.030;2023-01-26T05:42:52;-0.30;99.90
20398;DHT22;10358;49.590;11.030;2023-01-26T05:45:18;-0.30;99.90
20398;DHT22;10358;49.590;11.030;2023-01-26T05:47:45;-0.30;99.90
20398;DHT22;10358;49.590;11.030;2023-01-26T05:50:11;-0.20;99.90
20398;DHT22;10358;49.590;11.030;2023-01-26T05:52:37;-0.20;99.90
20398;DHT22;10358;49.590;11.030;2023-01-26T05:55:04;-0.20;99.90
20398;DHT22;10358;49.590;11.030;2023-01-26T05:57:31;-0.20;99.90
20398;DHT22;10358;49.590;11.030;2023-01-26T05:59:56;-0.20;99.90
20398;DHT22;10358;49.590;11.030;2023-01-26T06:02:22;-0.20;99.90
20398;DHT22;10358;49.590;11.030;2023-01-26T06:04:47;-0.20;99.90
20398;DHT22;10358;49.590;11.030;2023-01-26T06:07:13;-0.20;99.90
20398;DHT22;10358;49.590;11.030;2023-01-26T06:09:39;-0.20;99.90
20398;DHT22;10358;49.590;11.030;2023-01-26T06:12:07;-0.20;99.90
20398;DHT22;10358;49.590;11.030;2023-01-26T06:14:36;-0.10;99.90
20398;DHT22;10358;49.590;11.030;2023-01-26T06:17:02;-0.10;99.90
20398;DHT22;10358;49.590;11.030;2023-01-26T06:19:27;-0.10;99.90
20398;DHT22;10358;49.590;11.030;2023-01-26T06:21:53;-0.10;99.90
20398;DHT22;10358;49.590;11.030;2023-01-26T06:24:18;-0.10;99.90
20398;DHT22;10358;49.590;11.030;2023-01-26T06:26:46;-0.10;99.90
20398;DHT22;10358;49.590;11.030;2023-01-26T06:29:13;-0.10;99.90
20398;DHT22;10358;49.590;11.030;2023-01-26T06:31:38;0.00;99.90
20398;DHT22;10358;49.590;11.030;2023-01-26T06:34:04;-0.10;99.90
20398;DHT22;10358;49.590;11.030;2023-01-26T06:36:30;-0.10;99.90
20398;DHT22;10358;49.590;11.030;2023-01-26T06:38:55;-0.20;99.90
20398;DHT22;10358;49.590;11.030;2023-01-26T06:41:21;-0.20;99.90
20398;DHT22;10358;49.590;11.030;2023-01-26T06:43:47;-0.10;99.90
20398;DHT22;10358;49.590;11.030;2023-01-26T06:46:14;-0.10;99.90
20398;DHT22;10358;49.590;11.030;2023-01-26T06:48:40;-0.10;99.90
20398;DHT22;10358;49.590;11.030;2023-01-26T06:53:43;-0.20;99.90
20398;DHT22;10358;49.590;11.030;2023-01-26T06:56:11;-0.20;99.90
20398;DHT22;10358;49.590;11.030;2023-01-26T06:58:37;-0.20;99.90
20398;DHT22;10358;49.590;11.030;2023-01-26T07:01:02;-0.10;99.90
20398;DHT22;10358;49.590;11.030;2023-01-26T07:03:28;-0.10;99.90
20398;DHT22;10358;49.590;11.030;2023-01-26T07:05:54;-0.20;99.90
20398;DHT22;10358;49.590;11.030;2023-01-26T07:08:19;-0.20;99.90
20398;DHT22;10358;49.590;11.030;2023-01-26T07:10:45;-0.30;99.90
20398;DHT22;10358;49.590;11.030;2023-01-26T07:13:10;-0.30;99.90
20398;DHT22;10358;49.590;11.030;2023-01-26T07:15:36;-0.40;99.90
20398;DHT22;10358;49.590;11.030;2023-01-26T07:18:01;-0.40;99.90
20398;DHT22;10358;49.590;11.030;2023-01-26T07:20:27;-0.40;99.90
20398;DHT22;10358;49.590;11.030;2023-01-26T07:22:53;-0.40;99.90
20398;DHT22;10358;49.590;11.030;2023-01-26T07:25:18;-0.40;99.90
20398;DHT22;10358;49.590;11.030;2023-01-26T07:27:44;-0.50;99.90
20398;DHT22;10358;49.590;11.030;2023-01-26T07:30:11;-0.50;99.90
20398;DHT22;10358;49.590;11.030;2023-01-26T07:32:38;-0.40;99.90
20398;DHT22;10358;49.590;11.030;2023-01-26T07:35:05;-0.40;99.90
20398;DHT22;10358;49.590;11.030;2023-01-26T07:37:30;-0.30;99.90
20398;DHT22;10358;49.590;11.030;2023-01-26T07:39:56;-0.30;99.90
20398;DHT22;10358;49.590;11.030;2023-01-26T07:42:22;-0.30;99.90
20398;DHT22;10358;49.590;11.030;2023-01-26T07:44:47;-0.30;99.90
20398;DHT22;10358;49.590;11.030;2023-01-26T07:47:13;-0.30;99.90
20398;DHT22;10358;49.590;11.030;2023-01-26T07:49:39;-0.30;99.90
20398;DHT22;10358;49.590;11.030;2023-01-26T07:52:05;-0.20;99.90
20398;DHT22;10358;49.590;11.030;2023-01-26T07:54:31;-0.20;99.90
20398;DHT22;10358;49.590;11.030;2023-01-26T07:56:56;-0.20;99.90
20398;DHT22;10358;49.590;11.030;2023-01-26T07:59:22;-0.20;99.90
20398;DHT22;10358;49.590;11.030;2023-01-26T08:01:49;-0.20;99.90
20398;DHT22;10358;49.590;11.030;2023-01-26T08:04:15;-0.10;99.90
20398;DHT22;10358;49.590;11.030;2023-01-26T08:06:40;-0.20;99.90
20398;DHT22;10358;49.590;11.030;2023-01-26T08:09:06;-0.20;99.90
20398;DHT22;10358;49.590;11.030;2023-01-26T08:11:32;-0.30;99.90
20398;DHT22;10358;49.590;11.030;2023-01-26T08:13:58;-0.30;99.90
20398;DHT22;10358;49.590;11.030;2023-01-26T08:16:23;-0.40;99.90
20398;DHT22;10358;49.590;11.030;2023-01-26T08:18:49;-0.40;99.90
20398;DHT22;10358;49.590;11.030;2023-01-26T08:21:16;-0.40;99.90
20398;DHT22;10358;49.590;11.030;2023-01-26T08:23:41;-0.30;99.90
20398;DHT22;10358;49.590;11.030;2023-01-26T08:26:10;-0.20;99.90
20398;DHT22;10358;49.590;11.030;2023-01-26T08:28:37;-0.30;99.90
20398;DHT22;10358;49.590;11.030;2023-01-26T08:31:17;-0.30;99.90
20398;DHT22;10358;49.590;11.030;2023-01-26T08:33:45;-0.40;99.90
20398;DHT22;10358;49.590;11.030;2023-01-26T08:36:13;-0.30;99.90
20398;DHT22;10358;49.590;11.030;2023-01-26T08:38:39;-0.30;99.90
20398;DHT22;10358;49.590;11.030;2023-01-26T08:41:05;-0.30;99.90
20398;DHT22;10358;49.590;11.030;2023-01-26T08:43:31;-0.30;99.90
20398;DHT22;10358;49.590;11.030;2023-01-26T08:45:57;-0.30;99.90
20398;DHT22;10358;49.590;11.030;2023-01-26T08:48:23;-0.20;99.90
20398;DHT22;10358;49.590;11.030;2023-01-26T08:50:53;-0.20;99.90
20398;DHT22;10358;49.590;11.030;2023-01-26T08:53:19;-0.10;99.90
20398;DHT22;10358;49.590;11.030;2023-01-26T08:55:44;0.00;99.90
20398;DHT22;10358;49.590;11.030;2023-01-26T08:58:10;0.10;99.90
20398;DHT22;10358;49.590;11.030;2023-01-26T09:00:35;0.10;99.90
20398;DHT22;10358;49.590;11.030;2023-01-26T09:03:03;0.00;99.90
20398;DHT22;10358;49.590;11.030;2023-01-26T09:05:36;0.00;99.90
20398;DHT22;10358;49.590;11.030;2023-01-26T09:08:07;0.00;99.90
20398;DHT22;10358;49.590;11.030;2023-01-26T09:10:33;0.00;99.90
20398;DHT22;10358;49.590;11.030;2023-01-26T09:13:01;-0.20;99.90
20398;DHT22;10358;49.590;11.030;2023-01-26T09:15:27;-0.30;99.90
20398;DHT22;10358;49.590;11.030;2023-01-26T09:17:52;-0.30;99.90
20398;DHT22;10358;49.590;11.030;2023-01-26T09:20:18;-0.40;99.90
20398;DHT22;10358;49.590;11.030;2023-01-26T09:22:44;-0.40;99.90
20398;DHT22;10358;49.590;11.030;2023-01-26T09:25:10;-0.50;99.90
20398;DHT22;10358;49.590;11.030;2023-01-26T09:27:36;-0.50;99.90
20398;DHT22;10358;49.590;11.030;2023-01-26T09:30:03;-0.50;99.90
20398;DHT22;10358;49.590;11.030;2023-01-26T09:32:29;-0.50;99.90
20398;DHT22;10358;49.590;11.030;2023-01-26T09:34:55;-0.50;99.90
20398;DHT22;10358;49.590;11.030;2023-01-26T09:37:21;-0.40;99.90
20398;DHT22;10358;49.590;11.030;2023-01-26T09:39:46;-0.50;99.90
20398;DHT22;10358;49.590;11.030;2023-01-26T09:42:37;-0.50;99.90
20398;DHT22;10358;49.590;11.030;2023-01-26T09:47:49;-0.50;99.90
20398;DHT22;10358;49.590;11.030;2023-01-26T09:50:25;-0.50;99.90
20398;DHT22;10358;49.590;11.030;2023-01-26T09:53:03;-0.50;99.90
20398;DHT22;10358;49.590;11.030;2023-01-26T09:55:31;-0.50;99.90
20398;DHT22;10358;49.590;11.030;2023-01-26T09:58:12;-0.50;99.90
20398;DHT22;10358;49.590;11.030;2023-01-26T10:00:53;-0.50;99.90
20398;DHT22;10358;49.590;11.030;2023-01-26T10:03:25;-0.50;99.90
20398;DHT22;10358;49.590;11.030;2023-01-26T10:08:43;-0.40;99.90
20398;DHT22;10358;49.590;11.030;2023-01-26T10:11:45;-0.40;99.90
20398;DHT22;10358;49.590;11.030;2023-01-26T10:14:26;-0.40;99.90
20398;DHT22;10358;49.590;11.030;2023-01-26T10:16:57;-0.50;99.90
20398;DHT22;10358;49.590;11.030;2023-01-26T10:19:31;-0.50;99.90
20398;DHT22;10358;49.590;11.030;2023-01-26T10:22:04;-0.50;99.90
20398;DHT22;10358;49.590;11.030;2023-01-26T10:24:32;-0.60;99.90
20398;DHT22;10358;49.590;11.030;2023-01-26T10:26:58;-0.50;99.90
20398;DHT22;10358;49.590;11.030;2023-01-26T10:29:24;-0.50;99.90
20398;DHT22;10358;49.590;11.030;2023-01-26T10:31:50;-0.50;99.90
20398;DHT22;10358;49.590;11.030;2023-01-26T10:34:19;-0.40;99.90
20398;DHT22;10358;49.590;11.030;2023-01-26T10:36:46;-0.40;99.90
20398;DHT22;10358;49.590;11.030;2023-01-26T10:39:15;-0.40;99.90
20398;DHT22;10358;49.590;11.030;2023-01-26T10:41:58;-0.40;99.90
20398;DHT22;10358;49.590;11.030;2023-01-26T10:44:34;-0.40;99.90
20398;DHT22;10358;49.590;11.030;2023-01-26T10:47:12;-0.30;99.90
20398;DHT22;10358;49.590;11.030;2023-01-26T10:49:38;-0.30;99.90
20398;DHT22;10358;49.590;11.030;2023-01-26T10:54:40;-0.30;99.90
20398;DHT22;10358;49.590;11.030;2023-01-26T10:57:27;-0.30;99.90
20398;DHT22;10358;49.590;11.030;2023-01-26T10:59:59;-0.30;99.90
20398;DHT22;10358;49.590;11.030;2023-01-26T11:02:34;-0.40;99.90
20398;DHT22;10358;49.590;11.030;2023-01-26T11:10:26;-0.30;99.90
20398;DHT22;10358;49.590;11.030;2023-01-26T11:13:16;-0.40;99.90
20398;DHT22;10358;49.590;11.030;2023-01-26T11:15:48;-0.40;99.90
20398;DHT22;10358;49.590;11.030;2023-01-26T11:18:40;-0.40;99.90
20398;DHT22;10358;49.590;11.030;2023-01-26T11:21:14;-0.40;99.90
20398;DHT22;10358;49.590;11.030;2023-01-26T11:35:21;-0.50;99.90
20398;DHT22;10358;49.590;11.030;2023-01-26T11:45:57;-0.50;99.90
20398;DHT22;10358;49.590;11.030;2023-01-26T11:57:22;-0.20;99.90
20398;DHT22;10358;49.590;11.030;2023-01-26T12:00:13;-0.20;99.90
20398;DHT22;10358;49.590;11.030;2023-01-26T12:02:42;-0.30;99.90
20398;DHT22;10358;49.590;11.030;2023-01-26T12:05:26;-0.30;99.90
20398;DHT22;10358;49.590;11.030;2023-01-26T12:08:09;-0.30;99.90
20398;DHT22;10358;49.590;11.030;2023-01-26T12:10:45;-0.30;99.90
20398;DHT22;10358;49.590;11.030;2023-01-26T12:13:32;-0.20;99.90
20398;DHT22;10358;49.590;11.030;2023-01-26T12:16:14;-0.30;99.90
20398;DHT22;10358;49.590;11.030;2023-01-26T12:18:45;-0.30;99.90
20398;DHT22;10358;49.590;11.030;2023-01-26T12:21:13;-0.30;99.90
20398;DHT22;10358;49.590;11.030;2023-01-26T12:23:57;-0.40;99.90
20398;DHT22;10358;49.590;11.030;2023-01-26T12:26:36;-0.30;99.90
20398;DHT22;10358;49.590;11.030;2023-01-26T12:29:24;-0.20;99.90
20398;DHT22;10358;49.590;11.030;2023-01-26T12:34:51;-0.30;99.90
20398;DHT22;10358;49.590;11.030;2023-01-26T12:40:31;-0.30;99.90
20398;DHT22;10358;49.590;11.030;2023-01-26T12:45:46;-0.30;99.90
20398;DHT22;10358;49.590;11.030;2023-01-26T12:48:22;-0.30;99.90
20398;DHT22;10358;49.590;11.030;2023-01-26T12:51:06;-0.30;99.90
20398;DHT22;10358;49.590;11.030;2023-01-26T12:53:48;-0.30;99.90
20398;DHT22;10358;49.590;11.030;2023-01-26T12:56:38;-0.30;99.90
20398;DHT22;10358;49.590;11.030;2023-01-26T12:59:37;-0.30;99.90
20398;DHT22;10358;49.590;11.030;2023-01-26T13:02:32;-0.30;99.90
20398;DHT22;10358;49.590;11.030;2023-01-26T13:05:01;-0.30;99.90
20398;DHT22;10358;49.590;11.030;2023-01-26T13:07:35;-0.30;99.90
20398;DHT22;10358;49.590;11.030;2023-01-26T13:12:52;-0.30;99.90
20398;DHT22;10358;49.590;11.030;2023-01-26T13:15:29;-0.30;99.90
20398;DHT22;10358;49.590;11.030;2023-01-26T13:18:00;-0.30;99.90
20398;DHT22;10358;49.590;11.030;2023-01-26T13:28:40;-0.30;99.90
20398;DHT22;10358;49.590;11.030;2023-01-26T13:31:06;-0.30;99.90
20398;DHT22;10358;49.590;11.030;2023-01-26T13:33:33;-0.40;99.90
20398;DHT22;10358;49.590;11.030;2023-01-26T13:36:01;-0.40;99.90
20398;DHT22;10358;49.590;11.030;2023-01-26T13:38:42;-0.50;99.90
20398;DHT22;10358;49.590;11.030;2023-01-26T13:41:15;-0.40;99.90
20398;DHT22;10358;49.590;11.030;2023-01-26T13:43:53;-0.40;99.90
20398;DHT22;10358;49.590;11.030;2023-01-26T13:46:36;-0.30;99.90
20398;DHT22;10358;49.590;11.030;2023-01-26T13:49:03;-0.20;99.90
20398;DHT22;10358;49.590;11.030;2023-01-26T13:51:32;-0.30;99.90
20398;DHT22;10358;49.590;11.030;2023-01-26T13:54:14;-0.30;99.90
20398;DHT22;10358;49.590;11.030;2023-01-26T13:59:24;-0.30;99.90
20398;DHT22;10358;49.590;11.030;2023-01-26T14:01:52;-0.20;99.90
20398;DHT22;10358;49.590;11.030;2023-01-26T14:07:13;-0.20;99.90
20398;DHT22;10358;49.590;11.030;2023-01-26T14:09:48;-0.10;99.90
20398;DHT22;10358;49.590;11.030;2023-01-26T14:12:23;0.00;99.90
20398;DHT22;10358;49.590;11.030;2023-01-26T14:14:52;0.00;99.90
20398;DHT22;10358;49.590;11.030;2023-01-26T14:19:51;0.00;99.90
20398;DHT22;10358;49.590;11.030;2023-01-26T14:22:17;-0.10;99.90
20398;DHT22;10358;49.590;11.030;2023-01-26T14:24:47;-0.20;99.90
20398;DHT22;10358;49.590;11.030;2023-01-26T14:27:35;-0.20;99.90
20398;DHT22;10358;49.590;11.030;2023-01-26T14:33:12;-0.20;99.90
20398;DHT22;10358;49.590;11.030;2023-01-26T14:35:38;-0.20;99.90
20398;DHT22;10358;49.590;11.030;2023-01-26T14:40:53;-0.20;99.90
20398;DHT22;10358;49.590;11.030;2023-01-26T14:43:19;-0.20;99.90
20398;DHT22;10358;49.590;11.030;2023-01-26T14:48:19;-0.30;99.90
20398;DHT22;10358;49.590;11.030;2023-01-26T14:50:46;-0.20;99.90
20398;DHT22;10358;49.590;11.030;2023-01-26T14:53:18;-0.10;99.90
20398;DHT22;10358;49.590;11.030;2023-01-26T14:55:44;-0.10;99.90
20398;DHT22;10358;49.590;11.030;2023-01-26T14:58:18;-0.10;99.90
20398;DHT22;10358;49.590;11.030;2023-01-26T15:00:47;-0.10;99.90
20398;DHT22;10358;49.590;11.030;2023-01-26T15:03:26;0.00;99.90
20398;DHT22;10358;49.590;11.030;2023-01-26T15:08:29;0.00;99.90
20398;DHT22;10358;49.590;11.030;2023-01-26T15:11:00;0.00;99.90
20398;DHT22;10358;49.590;11.030;2023-01-26T15:13:47;0.00;99.90
20398;DHT22;10358;49.590;11.030;2023-01-26T15:16:18;0.00;99.90
20398;DHT22;10358;49.590;11.030;2023-01-26T15:18:44;0.00;99.90
20398;DHT22;10358;49.590;11.030;2023-01-26T15:21:20;0.00;99.90
20398;DHT22;10358;49.590;11.030;2023-01-26T15:23:50;0.00;99.90
20398;DHT22;10358;49.590;11.030;2023-01-26T15:26:33;0.10;99.90
20398;DHT22;10358;49.590;11.030;2023-01-26T15:29:05;0.20;99.90
20398;DHT22;10358;49.590;11.030;2023-01-26T15:31:40;0.20;99.90
20398;DHT22;10358;49.590;11.030;2023-01-26T15:36:58;0.10;99.90
20398;DHT22;10358;49.590;11.030;2023-01-26T15:39:24;0.10;99.90
20398;DHT22;10358;49.590;11.030;2023-01-26T15:42:12;0.10;99.90
20398;DHT22;10358;49.590;11.030;2023-01-26T15:44:38;0.10;99.90
20398;DHT22;10358;49.590;11.030;2023-01-26T15:47:08;0.00;99.90
20398;DHT22;10358;49.590;11.030;2023-01-26T15:49:35;-0.10;99.90
20398;DHT22;10358;49.590;11.030;2023-01-26T15:52:00;-0.10;99.90
20398;DHT22;10358;49.590;11.030;2023-01-26T15:54:26;-0.10;99.90
20398;DHT22;10358;49.590;11.030;2023-01-26T15:56:51;-0.10;99.90
20398;DHT22;10358;49.590;11.030;2023-01-26T15:59:17;0.00;99.90
20398;DHT22;10358;49.590;11.030;2023-01-26T16:01:43;0.00;99.90
20398;DHT22;10358;49.590;11.030;2023-01-26T16:04:11;0.00;99.90
20398;DHT22;10358;49.590;11.030;2023-01-26T16:06:38;0.00;99.90
20398;DHT22;10358;49.590;11.030;2023-01-26T16:09:03;0.00;99.90
20398;DHT22;10358;49.590;11.030;2023-01-26T16:11:32;-0.10;99.90
20398;DHT22;10358;49.590;11.030;2023-01-26T16:13:59;-0.20;99.90
20398;DHT22;10358;49.590;11.030;2023-01-26T16:16:26;-0.20;99.90
20398;DHT22;10358;49.590;11.030;2023-01-26T16:18:55;-0.20;99.90
20398;DHT22;10358;49.590;11.030;2023-01-26T16:21:24;-0.20;99.90
20398;DHT22;10358;49.590;11.030;2023-01-26T16:23:50;-0.20;99.90
20398;DHT22;10358;49.590;11.030;2023-01-26T16:26:18;-0.20;99.90
20398;DHT22;10358;49.590;11.030;2023-01-26T16:28:44;-0.20;99.90
20398;DHT22;10358;49.590;11.030;2023-01-26T16:31:13;-0.20;99.90
20398;DHT22;10358;49.590;11.030;2023-01-26T16:33:39;-0.30;99.90
20398;DHT22;10358;49.590;11.030;2023-01-26T16:36:04;-0.30;99.90
20398;DHT22;10358;49.590;11.030;2023-01-26T16:38:30;-0.30;99.90
20398;DHT22;10358;49.590;11.030;2023-01-26T16:40:56;-0.30;99.90
20398;DHT22;10358;49.590;11.030;2023-01-26T16:43:24;-0.30;99.90
20398;DHT22;10358;49.590;11.030;2023-01-26T16:45:52;-0.20;99.90
20398;DHT22;10358;49.590;11.030;2023-01-26T16:48:18;-0.30;99.90
20398;DHT22;10358;49.590;11.030;2023-01-26T16:50:44;-0.30;99.90
20398;DHT22;10358;49.590;11.030;2023-01-26T16:53:26;-0.30;99.90
20398;DHT22;10358;49.590;11.030;2023-01-26T16:55:53;-0.30;99.90
20398;DHT22;10358;49.590;11.030;2023-01-26T16:58:19;-0.30;99.90
20398;DHT22;10358;49.590;11.030;2023-01-26T17:00:46;-0.30;99.90
20398;DHT22;10358;49.590;11.030;2023-01-26T17:03:12;-0.40;99.90
20398;DHT22;10358;49.590;11.030;2023-01-26T17:05:38;-0.40;99.90
20398;DHT22;10358;49.590;11.030;2023-01-26T17:08:04;-0.40;99.90
20398;DHT22;10358;49.590;11.030;2023-01-26T17:10:30;-0.40;99.90